sensor_id;sensor_type;location;lat;lon;timestamp;pressure;altitude;pressure_sealevel;temperature;humidity
60246;BME280;46107;53.356;-1.524;2023-04-20T00:01:32;100065.12;;;4.00;62.64
60246;BME280;46107;53.356;-1.524;2023-04-20T00:04:00;100068.19;;;3.87;63.24
60246;BME280;46107;53.356;-1.524;2023-04-20T00:06:27;100062.69;;;3.83;63.41
60246;BME280;46107;53.356;-1.524;2023-04-20T00:08:55;100060.00;;;3.39;64.69
60246;BME280;46107;53.356;-1.524;2023-04-20T00:11:22;100063.32;;;3.66;63.09
60246;BME280;46107;53.356;-1.524;2023-04-20T00:13:51;100060.67;;;3.92;63.21
60246;BME280;46107;53.356;-1.524;2023-04-20T00:16:19;100063.74;;;4.38;61.81
60246;BME280;46107;53.356;-1.524;2023-04-20T00:18:46;100065.52;;;4.37;62.43
60246;BME280;46107;53.356;-1.524;2023-04-20T00:21:14;100063.83;;;3.53;64.18
60246;BME280;46107;53.356;-1.524;2023-04-20T00:23:42;100064.01;;;3.95;63.48
60246;BME280;46107;53.356;-1.524;2023-04-20T00:26:10;100066.31;;;3.35;65.08
60246;BME280;46107;53.356;-1.524;2023-04-20T00:28:37;100065.85;;;4.24;63.07
60246;BME280;46107;53.356;-1.524;2023-04-20T00:31:05;100067.67;;;4.60;62.49
60246;BME280;46107;53.356;-1.524;2023-04-20T00:33:32;100064.90;;;4.06;63.34
60246;BME280;46107;53.356;-1.524;2023-04-20T00:36:01;100065.76;;;4.45;61.83
60246;BME280;46107;53.356;-1.524;2023-04-20T00:38:28;100071.47;;;3.97;63.89
60246;BME280;46107;53.356;-1.524;2023-04-20T00:40:56;100069.22;;;3.92;64.68
60246;BME280;46107;53.356;-1.524;2023-04-20T00:43:24;100065.56;;;4.93;62.06
60246;BME280;46107;53.356;-1.524;2023-04-20T00:45:52;100064.54;;;4.25;61.85
60246;BME280;46107;53.356;-1.524;2023-04-20T00:48:21;100061.62;;;4.30;63.55
60246;BME280;46107;53.356;-1.524;2023-04-20T00:50:55;100059.16;;;3.93;63.32
60246;BME280;46107;53.356;-1.524;2023-04-20T00:53:23;100055.41;;;4.48;63.09
60246;BME280;46107;53.356;-1.524;2023-04-20T00:55:52;100055.90;;;4.83;64.21
60246;BME280;46107;53.356;-1.524;2023-04-20T00:58:20;100052.07;;;4.13;64.74
60246;BME280;46107;53.356;-1.524;2023-04-20T01:00:47;100049.97;;;3.24;66.73
60246;BME280;46107;53.356;-1.524;2023-04-20T01:03:15;100046.87;;;3.45;67.65
60246;BME280;46107;53.356;-1.524;2023-04-20T01:05:43;100043.97;;;4.85;63.60
60246;BME280;46107;53.356;-1.524;2023-04-20T01:08:11;100045.03;;;4.56;62.70
60246;BME280;46107;53.356;-1.524;2023-04-20T01:10:39;100040.77;;;4.82;62.23
60246;BME280;46107;53.356;-1.524;2023-04-20T01:13:06;100037.84;;;3.93;63.92
60246;BME280;46107;53.356;-1.524;2023-04-20T01:15:34;100033.34;;;4.79;63.49
60246;BME280;46107;53.356;-1.524;2023-04-20T01:18:01;100033.09;;;3.71;66.38
60246;BME280;46107;53.356;-1.524;2023-04-20T01:20:29;100025.12;;;4.24;65.99
60246;BME280;46107;53.356;-1.524;2023-04-20T01:22:57;100025.88;;;3.76;67.91
60246;BME280;46107;53.356;-1.524;2023-04-20T01:25:24;100027.88;;;3.50;68.36
60246;BME280;46107;53.356;-1.524;2023-04-20T01:27:52;100022.43;;;3.58;69.07
60246;BME280;46107;53.356;-1.524;2023-04-20T01:30:20;100023.40;;;4.03;67.18
60246;BME280;46107;53.356;-1.524;2023-04-20T01:32:48;100022.77;;;4.84;66.00
60246;BME280;46107;53.356;-1.524;2023-04-20T01:35:15;100023.29;;;4.49;65.58
60246;BME280;46107;53.356;-1.524;2023-04-20T01:37:43;100023.91;;;3.86;68.89
60246;BME280;46107;53.356;-1.524;2023-04-20T01:40:11;100021.33;;;4.08;67.31
60246;BME280;46107;53.356;-1.524;2023-04-20T01:42:40;100019.13;;;4.27;67.85
60246;BME280;46107;53.356;-1.524;2023-04-20T01:45:07;100019.04;;;4.15;67.24
60246;BME280;46107;53.356;-1.524;2023-04-20T01:47:35;100017.13;;;4.25;66.69
60246;BME280;46107;53.356;-1.524;2023-04-20T01:50:03;100017.35;;;4.56;67.84
60246;BME280;46107;53.356;-1.524;2023-04-20T01:52:31;100012.61;;;4.56;66.58
60246;BME280;46107;53.356;-1.524;2023-04-20T01:54:59;100010.74;;;5.19;66.75
60246;BME280;46107;53.356;-1.524;2023-04-20T01:57:26;100012.94;;;4.97;67.08
60246;BME280;46107;53.356;-1.524;2023-04-20T01:59:54;100008.53;;;5.09;65.60
60246;BME280;46107;53.356;-1.524;2023-04-20T02:02:21;100004.56;;;4.47;66.10
60246;BME280;46107;53.356;-1.524;2023-04-20T02:04:49;100002.79;;;3.96;68.52
60246;BME280;46107;53.356;-1.524;2023-04-20T02:07:17;100002.49;;;4.35;69.17
60246;BME280;46107;53.356;-1.524;2023-04-20T02:09:45;100002.55;;;4.11;70.53
60246;BME280;46107;53.356;-1.524;2023-04-20T02:12:12;100003.21;;;4.00;69.03
60246;BME280;46107;53.356;-1.524;2023-04-20T02:14:40;99998.50;;;2.85;72.64
60246;BME280;46107;53.356;-1.524;2023-04-20T02:17:07;99993.55;;;4.75;67.43
60246;BME280;46107;53.356;-1.524;2023-04-20T02:19:35;99989.18;;;4.72;66.88
60246;BME280;46107;53.356;-1.524;2023-04-20T02:22:01;99998.20;;;4.23;69.71
60246;BME280;46107;53.356;-1.524;2023-04-20T02:24:29;99996.90;;;4.18;70.81
60246;BME280;46107;53.356;-1.524;2023-04-20T02:26:57;99990.31;;;4.61;69.39
60246;BME280;46107;53.356;-1.524;2023-04-20T02:29:25;99991.88;;;3.92;70.63
60246;BME280;46107;53.356;-1.524;2023-04-20T02:31:52;99989.71;;;4.37;70.65
60246;BME280;46107;53.356;-1.524;2023-04-20T02:34:20;99989.09;;;4.34;70.82
60246;BME280;46107;53.356;-1.524;2023-04-20T02:36:47;99989.90;;;3.85;70.60
60246;BME280;46107;53.356;-1.524;2023-04-20T02:39:15;99989.96;;;4.58;69.52
60246;BME280;46107;53.356;-1.524;2023-04-20T02:41:43;99989.72;;;4.23;70.75
60246;BME280;46107;53.356;-1.524;2023-04-20T02:44:10;99987.41;;;4.20;71.72
60246;BME280;46107;53.356;-1.524;2023-04-20T02:46:38;99986.08;;;4.22;70.87
60246;BME280;46107;53.356;-1.524;2023-04-20T02:49:06;99990.36;;;4.47;68.98
60246;BME280;46107;53.356;-1.524;2023-04-20T02:51:34;99983.67;;;4.43;68.28
60246;BME280;46107;53.356;-1.524;2023-04-20T02:54:02;99978.75;;;4.70;67.95
60246;BME280;46107;53.356;-1.524;2023-04-20T02:56:29;99974.78;;;5.17;65.73
60246;BME280;46107;53.356;-1.524;2023-04-20T02:58:56;99975.12;;;4.86;66.43
60246;BME280;46107;53.356;-1.524;2023-04-20T03:01:24;99974.44;;;5.30;65.42
60246;BME280;46107;53.356;-1.524;2023-04-20T03:03:51;99977.10;;;4.28;69.85
60246;BME280;46107;53.356;-1.524;2023-04-20T03:06:19;99973.49;;;4.32;70.38
60246;BME280;46107;53.356;-1.524;2023-04-20T03:08:46;99974.10;;;4.48;69.65
60246;BME280;46107;53.356;-1.524;2023-04-20T03:11:14;99971.57;;;3.98;70.75
60246;BME280;46107;53.356;-1.524;2023-04-20T03:13:41;99972.79;;;3.60;71.89
60246;BME280;46107;53.356;-1.524;2023-04-20T03:16:09;99974.45;;;4.10;71.35
60246;BME280;46107;53.356;-1.524;2023-04-20T03:18:37;99975.12;;;4.08;70.82
60246;BME280;46107;53.356;-1.524;2023-04-20T03:21:05;99968.81;;;4.63;70.19
60246;BME280;46107;53.356;-1.524;2023-04-20T03:23:33;99965.74;;;4.46;69.40
60246;BME280;46107;53.356;-1.524;2023-04-20T03:26:00;99970.14;;;3.16;74.11
60246;BME280;46107;53.356;-1.524;2023-04-20T03:28:27;99970.57;;;4.37;70.96
60246;BME280;46107;53.356;-1.524;2023-04-20T03:30:55;99972.40;;;4.85;69.74
60246;BME280;46107;53.356;-1.524;2023-04-20T03:33:23;99974.72;;;3.80;71.04
60246;BME280;46107;53.356;-1.524;2023-04-20T03:35:56;99969.07;;;4.17;70.72
60246;BME280;46107;53.356;-1.524;2023-04-20T03:38:23;99971.02;;;4.81;70.03
60246;BME280;46107;53.356;-1.524;2023-04-20T03:40:51;99971.43;;;4.74;70.85
60246;BME280;46107;53.356;-1.524;2023-04-20T03:43:19;99980.15;;;4.22;71.25
60246;BME280;46107;53.356;-1.524;2023-04-20T03:45:46;99968.36;;;4.74;70.25
60246;BME280;46107;53.356;-1.524;2023-04-20T03:48:14;99973.29;;;5.23;69.38
60246;BME280;46107;53.356;-1.524;2023-04-20T03:50:41;99979.49;;;5.53;66.14
60246;BME280;46107;53.356;-1.524;2023-04-20T03:53:08;99974.57;;;4.41;69.62
60246;BME280;46107;53.356;-1.524;2023-04-20T03:55:36;99980.29;;;5.31;69.62
60246;BME280;46107;53.356;-1.524;2023-04-20T03:58:04;99976.54;;;5.00;68.04
60246;BME280;46107;53.356;-1.524;2023-04-20T04:00:32;99979.65;;;3.89;70.31
60246;BME280;46107;53.356;-1.524;2023-04-20T04:03:00;99979.37;;;4.14;71.70
60246;BME280;46107;53.356;-1.524;2023-04-20T04:05:27;99980.94;;;4.33;71.23
60246;BME280;46107;53.356;-1.524;2023-04-20T04:07:55;99976.66;;;3.88;72.37
60246;BME280;46107;53.356;-1.524;2023-04-20T04:10:22;99972.40;;;4.60;69.83
60246;BME280;46107;53.356;-1.524;2023-04-20T04:12:52;99971.46;;;4.19;70.57
60246;BME280;46107;53.356;-1.524;2023-04-20T04:15:20;99972.80;;;5.37;67.26
60246;BME280;46107;53.356;-1.524;2023-04-20T04:17:47;99977.20;;;4.92;67.42
60246;BME280;46107;53.356;-1.524;2023-04-20T04:20:15;99975.01;;;5.19;68.06
60246;BME280;46107;53.356;-1.524;2023-04-20T04:22:42;99975.15;;;4.34;69.30
60246;BME280;46107;53.356;-1.524;2023-04-20T04:25:10;99975.76;;;4.49;70.74
60246;BME280;46107;53.356;-1.524;2023-04-20T04:27:37;99975.89;;;4.17;71.54
60246;BME280;46107;53.356;-1.524;2023-04-20T04:30:06;99976.65;;;4.11;72.68
60246;BME280;46107;53.356;-1.524;2023-04-20T04:32:33;99975.48;;;4.85;70.20
60246;BME280;46107;53.356;-1.524;2023-04-20T04:35:01;99975.85;;;5.25;67.29
60246;BME280;46107;53.356;-1.524;2023-04-20T04:37:29;99978.98;;;6.09;66.23
60246;BME280;46107;53.356;-1.524;2023-04-20T04:39:56;99974.04;;;5.06;67.93
60246;BME280;46107;53.356;-1.524;2023-04-20T04:42:23;99982.63;;;4.59;70.70
60246;BME280;46107;53.356;-1.524;2023-04-20T04:44:55;99979.38;;;4.80;69.96
60246;BME280;46107;53.356;-1.524;2023-04-20T04:47:23;99976.54;;;5.06;70.41
60246;BME280;46107;53.356;-1.524;2023-04-20T04:49:51;99975.48;;;4.83;69.38
60246;BME280;46107;53.356;-1.524;2023-04-20T04:52:19;99978.14;;;4.25;70.84
60246;BME280;46107;53.356;-1.524;2023-04-20T04:54:47;99979.42;;;4.97;69.95
60246;BME280;46107;53.356;-1.524;2023-04-20T04:57:15;99985.37;;;4.23;70.31
60246;BME280;46107;53.356;-1.524;2023-04-20T04:59:42;99983.27;;;4.08;72.84
60246;BME280;46107;53.356;-1.524;2023-04-20T05:02:10;99986.17;;;4.08;73.55
60246;BME280;46107;53.356;-1.524;2023-04-20T05:04:38;99989.75;;;4.39;72.92
60246;BME280;46107;53.356;-1.524;2023-04-20T05:07:06;99993.46;;;3.69;74.02
60246;BME280;46107;53.356;-1.524;2023-04-20T05:09:33;99996.39;;;4.43;73.18
60246;BME280;46107;53.356;-1.524;2023-04-20T05:12:01;99998.24;;;4.10;73.13
60246;BME280;46107;53.356;-1.524;2023-04-20T05:14:29;99999.44;;;4.01;74.07
60246;BME280;46107;53.356;-1.524;2023-04-20T05:16:58;100004.21;;;4.03;74.01
60246;BME280;46107;53.356;-1.524;2023-04-20T05:19:26;100001.63;;;4.15;72.99
60246;BME280;46107;53.356;-1.524;2023-04-20T05:21:54;100001.24;;;4.49;73.11
60246;BME280;46107;53.356;-1.524;2023-04-20T05:24:22;99999.48;;;4.70;72.03
60246;BME280;46107;53.356;-1.524;2023-04-20T05:26:49;100002.81;;;4.35;72.53
60246;BME280;46107;53.356;-1.524;2023-04-20T05:29:16;99998.87;;;4.71;71.78
60246;BME280;46107;53.356;-1.524;2023-04-20T05:31:44;99999.84;;;4.78;71.06
60246;BME280;46107;53.356;-1.524;2023-04-20T05:34:12;100005.70;;;4.44;71.77
60246;BME280;46107;53.356;-1.524;2023-04-20T05:36:40;100003.99;;;4.31;71.21
60246;BME280;46107;53.356;-1.524;2023-04-20T05:39:08;100012.30;;;4.63;72.67
60246;BME280;46107;53.356;-1.524;2023-04-20T05:41:35;100014.16;;;4.52;72.75
60246;BME280;46107;53.356;-1.524;2023-04-20T05:44:04;100018.45;;;3.66;76.31
60246;BME280;46107;53.356;-1.524;2023-04-20T05:46:31;100015.72;;;3.63;74.61
60246;BME280;46107;53.356;-1.524;2023-04-20T05:48:59;100013.00;;;5.22;71.43
60246;BME280;46107;53.356;-1.524;2023-04-20T05:51:26;100018.14;;;3.81;75.45
60246;BME280;46107;53.356;-1.524;2023-04-20T05:53:53;100016.66;;;5.22;69.28
60246;BME280;46107;53.356;-1.524;2023-04-20T05:56:21;100021.40;;;4.67;71.72
60246;BME280;46107;53.356;-1.524;2023-04-20T05:58:49;100016.97;;;4.84;72.30
60246;BME280;46107;53.356;-1.524;2023-04-20T06:01:16;100013.79;;;5.59;68.29
60246;BME280;46107;53.356;-1.524;2023-04-20T06:03:44;100011.74;;;5.50;67.94
60246;BME280;46107;53.356;-1.524;2023-04-20T06:06:11;100015.85;;;5.19;70.88
60246;BME280;46107;53.356;-1.524;2023-04-20T06:08:38;100020.91;;;4.36;72.57
60246;BME280;46107;53.356;-1.524;2023-04-20T06:11:06;100018.39;;;4.77;71.78
60246;BME280;46107;53.356;-1.524;2023-04-20T06:13:33;100017.71;;;4.47;72.46
60246;BME280;46107;53.356;-1.524;2023-04-20T06:16:01;100015.62;;;5.48;68.95
60246;BME280;46107;53.356;-1.524;2023-04-20T06:18:29;100017.21;;;4.50;71.15
60246;BME280;46107;53.356;-1.524;2023-04-20T06:20:56;100017.43;;;5.06;70.79
60246;BME280;46107;53.356;-1.524;2023-04-20T06:23:23;100020.90;;;4.70;71.88
60246;BME280;46107;53.356;-1.524;2023-04-20T06:25:52;100014.68;;;5.20;69.84
60246;BME280;46107;53.356;-1.524;2023-04-20T06:28:20;100016.48;;;4.92;72.08
60246;BME280;46107;53.356;-1.524;2023-04-20T06:30:47;100019.73;;;4.12;72.13
60246;BME280;46107;53.356;-1.524;2023-04-20T06:33:16;100019.35;;;3.67;75.67
60246;BME280;46107;53.356;-1.524;2023-04-20T06:35:43;100016.00;;;4.46;72.46
60246;BME280;46107;53.356;-1.524;2023-04-20T06:38:11;100017.98;;;4.20;73.09
60246;BME280;46107;53.356;-1.524;2023-04-20T06:40:39;100013.58;;;4.56;72.17
60246;BME280;46107;53.356;-1.524;2023-04-20T06:43:07;100015.10;;;4.81;73.72
60246;BME280;46107;53.356;-1.524;2023-04-20T06:45:34;100008.36;;;5.25;69.51
60246;BME280;46107;53.356;-1.524;2023-04-20T06:48:02;100006.11;;;4.97;70.03
60246;BME280;46107;53.356;-1.524;2023-04-20T06:50:29;100007.16;;;4.13;73.11
60246;BME280;46107;53.356;-1.524;2023-04-20T06:52:57;100006.04;;;5.17;70.17
60246;BME280;46107;53.356;-1.524;2023-04-20T06:55:25;100005.61;;;4.25;72.64
60246;BME280;46107;53.356;-1.524;2023-04-20T06:57:52;99997.90;;;5.23;70.01
60246;BME280;46107;53.356;-1.524;2023-04-20T07:00:20;100000.88;;;4.94;70.27
60246;BME280;46107;53.356;-1.524;2023-04-20T07:02:49;100003.86;;;5.08;70.52
60246;BME280;46107;53.356;-1.524;2023-04-20T07:05:17;100002.34;;;5.52;67.56
60246;BME280;46107;53.356;-1.524;2023-04-20T07:07:45;100000.95;;;5.35;68.84
60246;BME280;46107;53.356;-1.524;2023-04-20T07:10:14;99998.65;;;6.07;66.89
60246;BME280;46107;53.356;-1.524;2023-04-20T07:12:42;100001.71;;;5.35;67.99
60246;BME280;46107;53.356;-1.524;2023-04-20T07:15:10;100002.90;;;4.95;70.75
60246;BME280;46107;53.356;-1.524;2023-04-20T07:17:38;100001.86;;;5.67;66.81
60246;BME280;46107;53.356;-1.524;2023-04-20T07:20:07;99999.88;;;5.20;68.82
60246;BME280;46107;53.356;-1.524;2023-04-20T07:22:35;99996.98;;;4.85;71.03
60246;BME280;46107;53.356;-1.524;2023-04-20T07:25:05;99998.17;;;5.35;69.62
60246;BME280;46107;53.356;-1.524;2023-04-20T07:27:35;99993.80;;;5.90;69.72
60246;BME280;46107;53.356;-1.524;2023-04-20T07:30:03;99990.00;;;5.83;70.02
60246;BME280;46107;53.356;-1.524;2023-04-20T07:32:31;99992.83;;;6.42;67.85
60246;BME280;46107;53.356;-1.524;2023-04-20T07:34:58;99996.50;;;6.51;67.36
60246;BME280;46107;53.356;-1.524;2023-04-20T07:37:26;99993.46;;;5.83;66.88
60246;BME280;46107;53.356;-1.524;2023-04-20T07:39:53;99994.32;;;6.41;66.94
60246;BME280;46107;53.356;-1.524;2023-04-20T07:42:20;99994.59;;;5.91;68.79
60246;BME280;46107;53.356;-1.524;2023-04-20T07:44:48;99991.47;;;5.75;68.01
60246;BME280;46107;53.356;-1.524;2023-04-20T07:47:16;99990.02;;;5.38;71.98
60246;BME280;46107;53.356;-1.524;2023-04-20T07:49:44;99986.03;;;6.68;67.39
60246;BME280;46107;53.356;-1.524;2023-04-20T07:52:11;99982.84;;;6.81;67.37
60246;BME280;46107;53.356;-1.524;2023-04-20T07:54:39;99988.54;;;6.28;67.65
60246;BME280;46107;53.356;-1.524;2023-04-20T07:57:07;99990.61;;;6.09;66.69
60246;BME280;46107;53.356;-1.524;2023-04-20T07:59:34;99987.88;;;6.06;67.02
60246;BME280;46107;53.356;-1.524;2023-04-20T08:02:03;99988.43;;;6.02;65.83
60246;BME280;46107;53.356;-1.524;2023-04-20T08:04:31;99985.82;;;6.46;65.41
60246;BME280;46107;53.356;-1.524;2023-04-20T08:06:58;99983.33;;;7.83;62.89
60246;BME280;46107;53.356;-1.524;2023-04-20T08:09:27;99985.44;;;7.43;62.45
60246;BME280;46107;53.356;-1.524;2023-04-20T08:11:55;99981.46;;;7.41;67.89
60246;BME280;46107;53.356;-1.524;2023-04-20T08:14:23;99977.06;;;7.18;67.00
60246;BME280;46107;53.356;-1.524;2023-04-20T08:16:52;99974.69;;;7.65;62.94
60246;BME280;46107;53.356;-1.524;2023-04-20T08:19:20;99973.66;;;7.40;60.49
60246;BME280;46107;53.356;-1.524;2023-04-20T08:21:49;99972.39;;;8.51;58.21
60246;BME280;46107;53.356;-1.524;2023-04-20T08:24:18;99968.76;;;8.14;57.55
60246;BME280;46107;53.356;-1.524;2023-04-20T08:26:45;99965.38;;;8.01;58.93
60246;BME280;46107;53.356;-1.524;2023-04-20T08:29:12;99958.90;;;7.73;57.66
60246;BME280;46107;53.356;-1.524;2023-04-20T08:31:40;99960.59;;;7.87;56.61
60246;BME280;46107;53.356;-1.524;2023-04-20T08:34:08;99962.80;;;8.06;56.68
60246;BME280;46107;53.356;-1.524;2023-04-20T08:36:35;99962.98;;;7.07;58.29
60246;BME280;46107;53.356;-1.524;2023-04-20T08:39:08;99960.62;;;8.29;55.58
60246;BME280;46107;53.356;-1.524;2023-04-20T08:41:36;99962.12;;;7.16;60.32
60246;BME280;46107;53.356;-1.524;2023-04-20T08:44:06;99956.41;;;7.12;58.48
60246;BME280;46107;53.356;-1.524;2023-04-20T08:46:35;99961.07;;;7.78;59.36
60246;BME280;46107;53.356;-1.524;2023-04-20T08:49:04;99951.69;;;9.25;54.04
60246;BME280;46107;53.356;-1.524;2023-04-20T08:51:32;99957.31;;;8.07;56.32
60246;BME280;46107;53.356;-1.524;2023-04-20T08:54:05;99951.02;;;9.34;54.88
60246;BME280;46107;53.356;-1.524;2023-04-20T08:56:35;99956.38;;;8.02;60.44
60246;BME280;46107;53.356;-1.524;2023-04-20T08:59:02;99953.21;;;7.78;59.10
60246;BME280;46107;53.356;-1.524;2023-04-20T09:01:30;99951.21;;;7.61;59.33
60246;BME280;46107;53.356;-1.524;2023-04-20T09:04:00;99951.22;;;9.17;54.16
60246;BME280;46107;53.356;-1.524;2023-04-20T09:06:27;99955.37;;;8.91;52.35
60246;BME280;46107;53.356;-1.524;2023-04-20T09:08:54;99949.09;;;9.04;55.10
60246;BME280;46107;53.356;-1.524;2023-04-20T09:11:23;99950.47;;;9.13;51.01
60246;BME280;46107;53.356;-1.524;2023-04-20T09:14:00;99951.63;;;8.57;51.17
60246;BME280;46107;53.356;-1.524;2023-04-20T09:16:29;99949.26;;;9.10;51.93
60246;BME280;46107;53.356;-1.524;2023-04-20T09:18:57;99942.49;;;9.51;51.27
60246;BME280;46107;53.356;-1.524;2023-04-20T09:21:26;99945.57;;;8.67;52.33
60246;BME280;46107;53.356;-1.524;2023-04-20T09:23:59;99944.45;;;7.24;54.55
60246;BME280;46107;53.356;-1.524;2023-04-20T09:26:30;99934.10;;;8.70;54.20
60246;BME280;46107;53.356;-1.524;2023-04-20T09:28:58;99932.25;;;9.64;50.57
60246;BME280;46107;53.356;-1.524;2023-04-20T09:31:25;99932.75;;;9.32;48.19
60246;BME280;46107;53.356;-1.524;2023-04-20T09:33:57;99930.29;;;9.91;47.05
60246;BME280;46107;53.356;-1.524;2023-04-20T09:36:35;99934.29;;;9.47;46.03
60246;BME280;46107;53.356;-1.524;2023-04-20T09:39:04;99933.11;;;9.17;48.54
60246;BME280;46107;53.356;-1.524;2023-04-20T09:41:34;99922.84;;;9.26;46.81
60246;BME280;46107;53.356;-1.524;2023-04-20T09:44:03;99922.48;;;8.81;45.89
60246;BME280;46107;53.356;-1.524;2023-04-20T09:46:32;99917.07;;;8.31;49.03
60246;BME280;46107;53.356;-1.524;2023-04-20T09:49:02;99903.84;;;8.93;46.17
60246;BME280;46107;53.356;-1.524;2023-04-20T09:51:32;99907.12;;;9.09;45.90
60246;BME280;46107;53.356;-1.524;2023-04-20T09:54:01;99895.84;;;8.67;46.92
60246;BME280;46107;53.356;-1.524;2023-04-20T09:56:30;99896.35;;;8.98;46.72
60246;BME280;46107;53.356;-1.524;2023-04-20T09:58:59;99896.17;;;10.02;45.21
60246;BME280;46107;53.356;-1.524;2023-04-20T10:01:30;99895.35;;;8.89;42.86
60246;BME280;46107;53.356;-1.524;2023-04-20T10:03:59;99894.56;;;9.33;42.23
60246;BME280;46107;53.356;-1.524;2023-04-20T10:06:29;99896.12;;;9.65;43.33
60246;BME280;46107;53.356;-1.524;2023-04-20T10:08:59;99891.57;;;9.31;42.91
60246;BME280;46107;53.356;-1.524;2023-04-20T10:11:29;99889.06;;;9.23;39.84
60246;BME280;46107;53.356;-1.524;2023-04-20T10:13:57;99883.80;;;8.70;41.62
60246;BME280;46107;53.356;-1.524;2023-04-20T10:16:25;99883.97;;;9.37;39.20
60246;BME280;46107;53.356;-1.524;2023-04-20T10:18:58;99883.67;;;8.49;41.01
60246;BME280;46107;53.356;-1.524;2023-04-20T10:21:26;99882.74;;;8.92;43.73
60246;BME280;46107;53.356;-1.524;2023-04-20T10:23:53;99876.90;;;10.40;41.11
60246;BME280;46107;53.356;-1.524;2023-04-20T10:26:22;99881.67;;;8.94;42.43
60246;BME280;46107;53.356;-1.524;2023-04-20T10:28:49;99875.92;;;9.46;41.84
60246;BME280;46107;53.356;-1.524;2023-04-20T10:31:17;99880.04;;;10.25;41.53
60246;BME280;46107;53.356;-1.524;2023-04-20T10:33:54;99877.04;;;10.05;40.62
60246;BME280;46107;53.356;-1.524;2023-04-20T10:36:26;99874.73;;;9.76;40.62
60246;BME280;46107;53.356;-1.524;2023-04-20T10:38:54;99863.21;;;10.21;40.18
60246;BME280;46107;53.356;-1.524;2023-04-20T10:41:22;99865.88;;;10.43;39.77
60246;BME280;46107;53.356;-1.524;2023-04-20T10:43:52;99865.17;;;10.20;40.91
60246;BME280;46107;53.356;-1.524;2023-04-20T10:46:21;99862.89;;;10.10;40.46
60246;BME280;46107;53.356;-1.524;2023-04-20T10:48:54;99862.77;;;10.39;41.06
60246;BME280;46107;53.356;-1.524;2023-04-20T10:51:23;99856.77;;;10.13;40.34
60246;BME280;46107;53.356;-1.524;2023-04-20T10:53:59;99864.65;;;9.74;37.20
60246;BME280;46107;53.356;-1.524;2023-04-20T10:56:35;99857.27;;;10.97;39.15
60246;BME280;46107;53.356;-1.524;2023-04-20T10:59:05;99851.86;;;10.23;40.08
60246;BME280;46107;53.356;-1.524;2023-04-20T11:01:32;99856.08;;;10.19;41.59
60246;BME280;46107;53.356;-1.524;2023-04-20T11:04:01;99844.91;;;9.90;39.63
60246;BME280;46107;53.356;-1.524;2023-04-20T11:06:28;99853.00;;;8.87;41.39
60246;BME280;46107;53.356;-1.524;2023-04-20T11:08:56;99857.18;;;9.95;40.41
60246;BME280;46107;53.356;-1.524;2023-04-20T11:11:24;99851.98;;;8.69;40.50
60246;BME280;46107;53.356;-1.524;2023-04-20T11:14:03;99853.36;;;9.61;39.24
60246;BME280;46107;53.356;-1.524;2023-04-20T11:16:32;99854.22;;;9.43;40.59
60246;BME280;46107;53.356;-1.524;2023-04-20T11:19:00;99849.54;;;10.80;37.87
60246;BME280;46107;53.356;-1.524;2023-04-20T11:21:36;99841.30;;;9.18;38.80
60246;BME280;46107;53.356;-1.524;2023-04-20T11:24:04;99843.75;;;9.57;37.50
60246;BME280;46107;53.356;-1.524;2023-04-20T11:26:36;99837.30;;;9.25;36.82
60246;BME280;46107;53.356;-1.524;2023-04-20T11:29:03;99841.65;;;10.02;33.59
60246;BME280;46107;53.356;-1.524;2023-04-20T11:31:31;99835.76;;;9.27;37.67
60246;BME280;46107;53.356;-1.524;2023-04-20T11:33:58;99824.67;;;10.57;35.32
60246;BME280;46107;53.356;-1.524;2023-04-20T11:36:26;99816.20;;;10.74;35.53
60246;BME280;46107;53.356;-1.524;2023-04-20T11:39:05;99820.54;;;11.23;34.76
60246;BME280;46107;53.356;-1.524;2023-04-20T11:41:33;99812.50;;;9.78;33.13
60246;BME280;46107;53.356;-1.524;2023-04-20T11:44:00;99818.06;;;9.64;34.45
60246;BME280;46107;53.356;-1.524;2023-04-20T11:46:27;99816.81;;;11.34;34.46
60246;BME280;46107;53.356;-1.524;2023-04-20T11:49:00;99810.12;;;10.26;33.26
60246;BME280;46107;53.356;-1.524;2023-04-20T11:51:27;99799.43;;;9.95;34.05
60246;BME280;46107;53.356;-1.524;2023-04-20T11:53:55;99791.18;;;10.39;33.54
60246;BME280;46107;53.356;-1.524;2023-04-20T11:56:23;99792.77;;;10.49;32.62
60246;BME280;46107;53.356;-1.524;2023-04-20T11:58:50;99782.66;;;10.63;31.73
60246;BME280;46107;53.356;-1.524;2023-04-20T12:01:18;99776.70;;;10.38;31.30
60246;BME280;46107;53.356;-1.524;2023-04-20T12:03:45;99784.14;;;9.29;33.37
60246;BME280;46107;53.356;-1.524;2023-04-20T12:06:13;99770.15;;;10.17;32.42
60246;BME280;46107;53.356;-1.524;2023-04-20T12:08:40;99772.06;;;11.43;31.56
60246;BME280;46107;53.356;-1.524;2023-04-20T12:11:08;99784.50;;;11.19;33.03
60246;BME280;46107;53.356;-1.524;2023-04-20T12:13:36;99779.75;;;11.69;30.82
60246;BME280;46107;53.356;-1.524;2023-04-20T12:16:03;99776.84;;;10.02;31.85
60246;BME280;46107;53.356;-1.524;2023-04-20T12:18:32;99768.43;;;10.64;30.21
60246;BME280;46107;53.356;-1.524;2023-04-20T12:20:58;99756.38;;;10.11;31.04
60246;BME280;46107;53.356;-1.524;2023-04-20T12:23:26;99768.49;;;10.76;36.12
60246;BME280;46107;53.356;-1.524;2023-04-20T12:25:54;99757.27;;;12.39;29.63
60246;BME280;46107;53.356;-1.524;2023-04-20T12:28:21;99755.24;;;12.38;31.09
60246;BME280;46107;53.356;-1.524;2023-04-20T12:30:49;99747.73;;;12.07;32.09
60246;BME280;46107;53.356;-1.524;2023-04-20T12:33:16;99757.09;;;11.74;31.66
60246;BME280;46107;53.356;-1.524;2023-04-20T12:35:44;99760.51;;;11.98;30.33
60246;BME280;46107;53.356;-1.524;2023-04-20T12:38:11;99758.31;;;12.53;33.82
60246;BME280;46107;53.356;-1.524;2023-04-20T12:40:39;99756.06;;;12.42;30.63
60246;BME280;46107;53.356;-1.524;2023-04-20T12:43:06;99751.88;;;11.51;29.50
60246;BME280;46107;53.356;-1.524;2023-04-20T12:45:34;99753.16;;;11.60;29.80
60246;BME280;46107;53.356;-1.524;2023-04-20T12:48:02;99746.49;;;11.36;30.65
60246;BME280;46107;53.356;-1.524;2023-04-20T12:50:30;99752.99;;;11.83;30.48
60246;BME280;46107;53.356;-1.524;2023-04-20T12:52:58;99749.48;;;10.75;32.69
60246;BME280;46107;53.356;-1.524;2023-04-20T12:55:25;99742.62;;;9.67;30.17
60246;BME280;46107;53.356;-1.524;2023-04-20T12:57:52;99732.73;;;10.64;30.67
60246;BME280;46107;53.356;-1.524;2023-04-20T13:00:20;99738.87;;;11.72;30.89